Werte bis 5 Uhr SommerzeitDiagramme Butzbach: Tagesdaten MonatsdatenCSV-Datei: Butzbach20.csv

Wetterdaten 2020 Station: Butzbach
Temperaturen in °C relative Nieder- Global- Wind Wind Wind- Sonnen-
Datum Boden Boden Luft Luft Luft Luft Feuchte schlag strahlung max richtung schein
20 cm 5 cm 20 cm 2 m 2 m max 2 m min % mm W/m2*d m/s m/s ° h

07.08.2020 21,0 21,5 15,2 17,6 19,7 15,8 65 0,0 0 0,8 3,1 --- ---
06.08.2020 19,9 20,8 21,9 21,7 31,1 10,7 51 0,0 6828 1,1 6,8 --- 13,0
05.08.2020 19,3 19,8 19,8 19,4 28,7 8,7 52 0,0 6860 1,2 7,6 --- 13,0
04.08.2020 19,3 19,5 19,7 19,2 26,9 13,2 48 0,0 6317 2,5 10,0 --- 13,0
03.08.2020 19,7 19,8 18,7 18,8 22,6 13,0 62 0,0 3793 1,6 5,9 --- 12,6
02.08.2020 20,3 20,9 22,5 22,5 29,7 18,1 62 0,4 4669 2,5 8,6 --- 11,0
01.08.2020 20,5 21,3 23,2 24,2 34,8 15,4 57 0,0 4045 1,3 9,1 --- 12,3
31.07.2020 19,9 21,0 24,8 24,7 34,1 15,5 41 0,0 7018 1,4 4,8 --- 13,0
30.07.2020 19,2 20,0 21,8 21,3 29,4 14,2 47 0,0 6924 1,5 5,5 --- 13,0
29.07.2020 19,0 19,4 19,4 19,4 28,4 9,9 52 0,0 6949 2,1 8,7 --- 13,0
28.07.2020 19,2 19,7 21,8 22,7 31,0 13,8 52 0,0 4982 2,6 10,3 --- 13,1
27.07.2020 19,1 19,3 19,4 20,0 29,3 11,3 65 0,0 4614 1,0 6,9 --- 12,7
26.07.2020 19,6 20,3 20,4 20,7 27,8 13,6 68 4,5 5506 1,9 10,0 --- 12,7
25.07.2020 19,4 20,2 21,9 22,0 28,6 15,7 56 0,0 4283 1,3 7,1 --- 11,2
24.07.2020 19,2 20,0 21,5 21,8 30,7 13,6 50 0,0 5818 1,8 9,4 --- 12,0
23.07.2020 18,8 19,6 20,3 19,7 26,4 13,5 47 0,0 7290 1,9 8,1 --- 13,1
22.07.2020 18,5 19,0 18,3 18,4 26,3 7,8 50 0,0 7330 1,6 6,4 --- 13,8
21.07.2020 18,5 19,1 19,4 19,0 26,0 13,4 49 0,0 7671 2,4 9,5 --- 13,7
20.07.2020 18,7 19,1 18,6 19,5 26,1 14,7 65 0,2 4537 1,6 6,6 --- 11,5
19.07.2020 18,5 19,1 19,8 20,8 30,6 10,6 58 0,0 5390 0,8 6,5 --- 13,0
18.07.2020 18,1 18,9 20,4 20,1 28,0 13,5 60 0,0 6215 0,8 5,4 --- 13,0
17.07.2020 17,5 17,9 18,2 17,8 24,2 13,3 74 0,0 4649 1,1 4,7 --- 10,4
16.07.2020 17,7 17,4 15,1 15,1 17,1 13,2 84 2,9 1553 0,7 3,6 --- 6,3
15.07.2020 18,1 18,4 17,8 17,3 23,6 14,2 72 1,6 5040 1,7 7,9 --- 11,6
14.07.2020 18,2 18,5 18,1 18,7 26,8 9,4 59 0,7 4157 1,2 10,1 --- 11,3
13.07.2020 17,9 18,4 18,7 18,7 26,9 10,5 51 0,0 7349 1,1 4,8 --- 13,8
12.07.2020 17,6 17,8 17,4 17,3 24,5 9,6 55 0,0 6785 1,6 5,7 --- 13,7
11.07.2020 17,8 17,7 15,6 15,7 22,9 8,6 64 0,0 5257 1,3 6,3 --- 13,8
10.07.2020 18,4 18,7 19,0 19,4 25,1 15,0 71 0,0 3027 1,8 11,7 --- 11,9
09.07.2020 17,8 18,4 21,4 21,2 29,8 14,9 72 0,1 4739 1,1 8,6 --- 12,1
08.07.2020 17,9 17,7 15,0 14,8 17,2 12,7 85 2,5 1808 0,8 6,9 --- 8,9
07.07.2020 17,9 17,7 16,2 15,9 23,5 6,3 62 0,0 6798 1,3 6,4 --- 13,8
06.07.2020 18,9 18,7 16,0 16,2 23,2 10,1 65 0,3 4511 2,8 10,8 --- 12,3
05.07.2020 19,1 19,9 22,1 22,2 29,3 17,5 67 0,0 4578 1,4 10,8 --- 10,0
04.07.2020 18,5 18,9 20,0 20,0 27,4 10,3 60 0,0 5944 1,3 9,6 --- 13,1
03.07.2020 18,6 18,8 18,2 17,9 24,5 11,8 67 0,0 6069 1,8 7,4 --- 14,2
02.07.2020 18,7 19,4 19,7 19,3 26,6 13,6 75 0,0 5371 1,7 10,9 --- 12,6
01.07.2020 17,9 18,4 20,7 20,5 29,2 11,1 70 0,0 6029 1,4 9,4 --- 13,4
30.06.2020 18,0 17,7 16,3 16,5 23,7 7,8 66 0,0 4682 1,1 7,8 --- 14,5
29.06.2020 18,5 18,5 16,6 16,7 25,2 9,5 71 0,1 6382 1,6 11,9 --- 13,2
28.06.2020 19,4 19,8 19,0 19,3 25,1 13,0 72 0,1 3043 1,0 8,9 --- 11,1
27.06.2020 19,4 20,2 22,2 22,1 28,8 14,7 70 0,0 4751 0,9 6,9 --- 14,3
26.06.2020 18,9 19,7 21,5 21,0 28,3 12,3 66 0,0 7425 1,3 7,6 --- 13,6
25.06.2020 18,9 19,4 19,8 20,0 26,9 13,3 72 0,0 5421 1,5 7,3 --- 13,6
24.06.2020 18,6 19,3 20,1 20,0 26,6 11,3 59 0,0 7819 1,6 7,9 --- 14,3
23.06.2020 18,4 19,0 19,1 19,3 26,0 10,6 64 0,0 7441 1,1 5,7 --- 14,4
22.06.2020 18,4 19,1 19,0 19,3 24,2 13,7 70 0,0 5990 1,8 6,5 --- 14,6
21.06.2020 18,0 18,5 18,4 18,7 26,7 9,7 67 0,0 6673 0,9 5,5 --- 14,0
20.06.2020 18,0 18,6 18,5 18,9 24,6 13,8 69 0,0 6313 1,6 8,0 --- 13,5
19.06.2020 17,7 18,1 17,5 17,9 24,6 10,4 73 0,5 6496 1,8 9,1 --- 13,0
18.06.2020 17,8 18,3 17,3 17,1 21,3 13,0 83 4,7 4355 1,0 6,3 --- 11,6
17.06.2020 17,3 17,9 17,5 17,2 24,7 12,2 88 17,7 4969 1,2 9,4 --- 10,0
16.06.2020 17,3 17,6 16,7 16,5 19,4 14,5 93 0,0 2283 0,7 5,3 --- 9,8
15.06.2020 17,6 17,9 17,1 17,0 20,2 15,1 86 0,1 2669 2,1 8,1 --- 9,1
14.06.2020 17,8 18,5 18,1 18,4 24,9 15,7 83 17,2 4709 3,1 11,9 --- 12,0
13.06.2020 17,0 18,4 21,6 21,5 28,2 15,1 65 34,2 7137 2,6 11,5 --- 13,4
12.06.2020 15,5 16,3 18,7 19,1 27,5 9,7 73 0,0 7320 1,6 7,4 --- 13,9
11.06.2020 15,2 15,6 14,9 14,9 19,3 11,5 85 4,5 3047 1,4 5,2 --- 9,7
10.06.2020 15,1 15,2 14,5 14,5 18,6 12,7 85 1,5 2624 1,9 6,2 --- 8,5
09.06.2020 14,9 15,0 15,2 15,1 19,9 9,8 71 0,6 4062 1,8 7,0 --- 13,1
08.06.2020 14,8 14,9 13,9 13,9 20,8 6,3 70 0,0 5246 1,1 6,3 --- 12,3
07.06.2020 14,6 14,5 13,2 13,3 19,5 6,4 68 0,0 4865 1,2 8,0 --- 14,2
06.06.2020 14,6 14,1 11,0 11,1 18,0 4,7 83 4,5 4843 1,1 12,3 --- 12,9
05.06.2020 15,7 15,1 11,1 11,0 16,0 6,2 82 5,9 2860 2,1 11,1 --- 11,2
04.06.2020 17,0 16,9 13,6 13,8 17,5 10,9 89 8,6 1611 1,5 8,4 --- 5,8
03.06.2020 17,4 18,2 17,9 18,2 27,9 9,6 64 0,0 4721 0,9 11,8 --- 12,0
02.06.2020 17,0 18,0 19,0 19,0 27,9 9,8 52 0,0 7530 1,1 6,0 --- 13,7
01.06.2020 16,3 17,0 17,6 17,6 25,4 7,6 54 0,0 8051 1,8 7,9 --- 14,2
31.05.2020 16,1 16,6 15,4 15,3 20,2 9,9 53 0,0 6886 2,3 8,4 --- 13,2
30.05.2020 15,9 16,2 15,0 15,0 20,9 6,2 50 0,0 7633 2,8 11,1 --- 14,4
29.05.2020 15,9 16,2 15,5 15,4 21,5 6,6 49 0,0 7944 2,4 10,0 --- 14,2
28.05.2020 15,9 16,6 16,9 16,4 21,0 11,6 49 0,0 8190 3,1 8,8 --- 14,1
27.05.2020 15,2 15,8 15,8 15,3 23,5 5,3 64 0,0 7472 0,9 6,0 --- 12,9
26.05.2020 14,8 15,0 14,1 13,6 20,2 7,9 67 0,0 6334 1,6 5,5 --- 13,5
25.05.2020 14,7 14,9 15,0 15,2 21,8 10,1 69 0,0 5170 2,6 9,2 --- 12,3
24.05.2020 14,9 14,6 12,9 12,9 18,4 5,8 70 0,0 4201 2,2 8,1 --- 10,0
23.05.2020 16,2 16,3 13,3 13,5 16,6 10,5 79 3,1 2739 1,7 8,9 --- 8,7
22.05.2020 16,6 17,3 18,0 18,1 24,3 10,1 78 7,4 3177 1,1 11,8 --- 11,9
21.05.2020 16,3 17,4 17,9 17,2 25,8 8,6 67 0,0 7557 1,1 5,3 --- 13,3
20.05.2020 16,0 17,3 18,8 18,3 23,3 14,0 63 0,0 6210 1,9 7,3 --- 12,9
19.05.2020 15,0 16,1 17,9 17,9 25,2 7,1 55 0,0 7529 1,7 8,0 --- 13,2
18.05.2020 14,1 14,9 15,6 15,4 23,8 4,4 60 0,0 7355 1,4 9,4 --- 13,2
17.05.2020 13,4 14,1 14,1 13,6 20,4 8,4 54 0,0 7593 2,1 6,5 --- 13,1
16.05.2020 12,5 12,8 12,1 11,6 19,3 1,5 56 0,0 7321 1,2 5,4 --- 13,3
15.05.2020 11,8 11,8 11,3 10,7 17,5 4,5 52 0,0 7443 2,7 8,0 --- 12,4
14.05.2020 11,6 11,2 9,7 9,1 14,9 4,2 64 0,0 5809 3,0 8,3 --- 13,0
13.05.2020 11,5 11,2 9,3 8,7 15,4 0,8 62 0,0 5530 1,6 7,7 --- 11,4
12.05.2020 11,2 10,3 7,5 6,9 14,0 -0,6 65 0,0 6198 1,2 4,9 --- 12,8
11.05.2020 13,2 12,0 6,6 6,9 14,9 2,4 81 3,8 1316 4,2 12,5 --- 5,6
10.05.2020 13,8 14,5 15,1 14,8 23,1 9,8 87 3,0 4262 1,0 11,1 --- 8,3
09.05.2020 13,8 14,4 14,7 15,4 21,5 10,1 62 0,0 3349 1,0 4,9 --- 11,9
08.05.2020 13,3 14,3 14,8 15,5 22,6 7,5 56 0,0 6211 1,3 4,9 --- 13,0
07.05.2020 12,4 13,0 12,5 11,9 21,5 2,0 63 0,0 7131 1,0 5,3 --- 13,0
06.05.2020 12,1 12,3 10,0 9,2 17,5 0,3 59 0,0 7442 1,4 6,5 --- 13,0
05.05.2020 12,0 12,1 9,6 9,2 14,8 3,3 60 0,0 7203 2,4 7,7 --- 13,0
04.05.2020 12,3 12,5 10,5 10,5 13,8 4,7 84 0,2 2835 1,6 7,7 --- 11,4
03.05.2020 11,9 12,0 11,1 11,2 16,6 4,2 72 0,0 4425 1,1 6,2 --- 12,6
02.05.2020 12,0 11,9 9,4 9,4 14,9 5,4 82 3,4 4743 2,1 10,8 --- 12,7
01.05.2020 12,3 12,2 9,7 9,6 15,5 4,7 85 8,1 3876 1,1 9,2 --- 11,7
30.04.2020 12,9 13,3 11,4 11,5 16,8 5,6 84 9,0 3397 1,8 13,7 --- 9,8
29.04.2020 12,7 13,2 13,1 13,9 22,7 9,8 71 0,0 4375 1,6 12,0 --- 12,0
28.04.2020 12,8 12,9 10,4 11,6 18,9 5,3 82 2,9 2922 0,9 8,3 --- 10,0
27.04.2020 12,8 13,4 12,2 13,2 23,8 2,8 57 0,0 6240 1,3 7,4 --- 13,0
26.04.2020 12,6 13,1 11,1 11,3 19,8 1,6 60 0,0 6737 1,2 7,2 --- 12,9
25.04.2020 12,7 13,3 10,8 10,9 16,6 5,4 58 0,0 6683 2,1 7,9 --- 12,1
24.04.2020 12,5 13,0 12,1 13,3 24,0 4,0 59 0,0 5748 1,7 10,2 --- 11,2
23.04.2020 12,3 13,0 12,3 13,5 23,0 4,0 51 0,0 6646 1,4 6,8 --- 12,9
22.04.2020 11,9 12,6 14,0 14,4 21,6 7,8 42 0,0 6722 3,7 11,3 --- 12,9
21.04.2020 11,6 12,0 13,1 13,2 20,1 6,5 43 0,0 6658 4,5 11,6 --- 12,9
20.04.2020 11,5 11,6 11,5 11,6 18,6 5,4 44 0,0 6627 4,3 14,0 --- 12,8
19.04.2020 12,3 12,7 12,3 12,5 15,6 8,6 73 0,0 2841 3,1 7,9 --- 10,0
18.04.2020 12,2 13,1 14,2 14,7 22,8 7,7 69 1,2 3741 1,5 10,8 --- 9,5
17.04.2020 11,3 12,5 15,6 16,3 23,9 8,0 51 0,0 5776 1,9 5,9 --- 11,4
16.04.2020 10,0 10,6 11,7 12,9 23,8 1,0 57 0,0 5859 1,4 7,6 --- 11,9
15.04.2020 9,4 9,2 6,7 7,2 17,3 -1,8 62 0,0 5397 1,0 4,7 --- 11,0
14.04.2020 9,7 8,8 5,2 5,5 11,3 0,4 55 0,0 4975 2,4 8,8 --- 12,0
13.04.2020 11,2 10,8 7,2 8,7 12,8 3,4 61 0,0 3434 2,6 9,8 --- 11,4
12.04.2020 11,5 12,0 12,2 13,6 24,1 5,4 54 0,0 4713 1,1 7,7 --- 11,6
11.04.2020 11,6 12,2 11,8 12,4 20,9 4,3 42 0,0 6016 1,6 6,1 --- 11,8
10.04.2020 11,5 12,6 14,8 15,1 21,4 9,2 52 0,0 5784 2,3 8,2 --- 11,4
09.04.2020 11,0 12,0 13,7 15,0 24,2 5,3 56 0,0 4430 1,4 6,7 --- 10,8
08.04.2020 10,5 11,7 13,5 14,6 23,4 5,9 60 0,0 5481 1,2 5,1 --- 11,1
07.04.2020 9,5 10,6 13,9 14,9 22,0 6,1 57 0,0 5221 1,8 7,7 --- 11,3
06.04.2020 8,5 9,1 10,7 12,3 22,7 0,9 52 0,0 5580 1,6 8,6 --- 11,2
05.04.2020 8,0 8,3 8,4 9,6 18,8 -0,3 60 0,0 5612 1,8 10,4 --- 11,2
04.04.2020 7,5 7,7 6,8 7,1 14,5 -1,1 64 0,0 5410 1,7 6,0 --- 11,2
03.04.2020 7,1 7,0 7,1 7,6 15,3 0,4 66 0,0 2999 2,2 8,3 --- 9,0
02.04.2020 6,7 6,7 5,9 6,4 16,1 -2,1 56 0,0 5338 2,0 8,1 --- 11,0
01.04.2020 6,4 6,0 2,3 2,9 11,1 -4,9 56 0,0 5470 1,1 5,3 --- 11,1
31.03.2020 6,7 6,7 4,2 3,9 8,2 -1,9 62 0,0 5408 2,6 10,4 --- 11,1
30.03.2020 6,2 5,4 3,0 2,8 8,4 -3,3 49 0,0 4977 2,2 7,2 --- 11,1
29.03.2020 7,2 6,5 4,0 4,2 8,0 1,5 68 0,2 2218 3,8 12,0 --- 8,6
28.03.2020 7,1 7,7 10,9 11,3 16,9 6,8 50 0,0 4769 3,4 9,4 --- 10,9
27.03.2020 6,0 6,1 9,0 9,4 15,6 2,9 53 0,0 4677 2,9 8,4 --- 10,9
26.03.2020 5,4 4,8 4,9 5,1 11,0 -0,1 48 0,0 4709 3,3 9,3 --- 10,4
25.03.2020 5,2 4,3 2,6 3,1 10,3 -4,7 46 0,0 5042 2,8 10,3 --- 10,9
24.03.2020 5,5 4,3 1,1 1,7 9,4 -5,3 53 0,0 5051 2,1 8,7 --- 10,8
23.03.2020 6,1 4,7 1,0 2,0 8,1 -3,0 49 0,0 4979 2,5 8,9 --- 10,8
22.03.2020 6,9 5,5 2,8 3,1 8,6 -1,4 54 0,0 4932 3,3 10,7 --- 10,8
21.03.2020 8,5 7,7 4,6 4,8 7,3 0,8 73 2,5 2207 4,4 12,1 --- 9,0
20.03.2020 9,2 9,5 10,2 10,2 13,4 6,3 79 0,0 2749 3,6 8,6 --- 8,2
19.03.2020 8,6 9,1 9,7 10,5 17,5 4,3 75 0,0 3636 0,9 3,9 --- 9,4
18.03.2020 8,1 8,1 7,7 8,8 18,1 0,0 80 0,0 3181 1,0 8,1 --- 9,9
17.03.2020 8,1 8,7 9,8 10,7 16,4 4,7 73 0,0 3184 1,3 6,5 --- 9,5
16.03.2020 7,1 7,2 7,7 8,4 16,7 1,4 76 0,0 3799 1,1 4,8 --- 9,8
15.03.2020 6,9 6,6 6,3 7,1 14,4 1,4 73 0,0 3839 1,4 7,9 --- 10,0
14.03.2020 7,1 6,5 4,1 4,5 9,7 0,0 85 0,1 2238 1,0 6,2 --- 8,2
13.03.2020 7,7 7,0 6,3 6,9 14,6 3,3 70 0,5 3424 3,4 12,4 --- 9,3
12.03.2020 8,5 9,0 10,2 11,1 17,0 6,0 69 2,2 2962 3,3 18,1 --- 8,7
11.03.2020 7,4 8,6 13,0 13,5 19,1 11,7 83 1,2 2520 4,0 18,0 --- 8,0
10.03.2020 6,0 5,7 7,3 7,6 13,0 3,1 90 6,9 1084 2,5 9,8 --- 5,5
09.03.2020 6,1 6,2 7,1 7,6 12,0 3,2 77 0,4 2573 2,3 11,1 --- 9,7
08.03.2020 5,3 5,0 6,6 6,8 10,6 3,1 78 0,2 2360 2,3 10,1 --- 7,3
07.03.2020 5,2 4,6 4,8 5,3 9,8 1,2 73 0,0 2228 3,0 10,3 --- 8,4
06.03.2020 5,3 4,9 5,1 5,3 7,5 4,0 90 4,3 788 3,0 13,0 --- 2,6
05.03.2020 5,1 4,3 3,7 3,8 5,8 0,3 94 9,3 720 1,3 8,4 --- 1,6
04.03.2020 5,3 4,3 3,1 3,8 10,3 -0,5 84 0,1 1956 1,4 8,7 --- 7,5
03.03.2020 5,9 5,6 4,4 5,0 10,8 0,3 77 2,4 2805 3,0 10,1 --- 8,4
02.03.2020 5,7 5,5 5,5 5,6 10,6 -0,9 83 3,2 2413 2,2 15,5 --- 7,7
01.03.2020 5,4 5,2 6,6 7,2 12,0 4,3 75 2,1 2300 2,6 11,5 --- 7,7
29.02.2020 4,8 4,7 6,3 6,9 12,7 2,4 83 6,6 1663 2,5 14,0 --- 7,0
28.02.2020 4,3 3,3 2,9 3,2 7,0 0,9 81 5,4 2426 2,9 11,5 --- 8,1
27.02.2020 5,0 3,8 1,6 1,8 4,4 0,1 92 5,9 872 2,0 7,7 --- 3,9
26.02.2020 5,8 4,8 3,2 3,5 6,3 2,1 80 1,7 1407 3,3 12,8 --- 5,5
25.02.2020 6,2 6,3 8,1 8,7 15,4 4,9 77 2,5 1839 2,8 13,7 --- 6,8
24.02.2020 5,8 5,3 5,3 5,9 10,7 0,8 85 2,2 509 2,0 14,3 --- ---
23.02.2020 5,6 6,0 9,3 9,8 13,2 7,0 82 7,2 593 4,4 17,9 --- 1,7
22.02.2020 4,9 4,1 4,9 5,8 10,7 -1,1 76 0,0 1493 2,2 13,4 --- 6,7
21.02.2020 5,1 4,7 5,1 5,4 9,8 3,0 73 2,9 1983 3,0 14,3 --- 7,5
20.02.2020 4,9 4,2 5,2 5,5 8,7 0,6 85 3,0 1033 1,9 9,3 --- 5,6
19.02.2020 5,3 4,6 4,1 5,0 11,8 -0,6 77 2,8 1763 3,1 15,5 --- 5,6
18.02.2020 5,5 5,1 6,0 6,7 11,5 5,0 72 0,6 1636 3,2 13,4 --- 5,7
17.02.2020 5,8 6,0 6,9 7,7 14,6 4,8 80 6,8 742 2,7 16,2 --- 3,2
16.02.2020 4,8 5,1 10,9 11,8 15,8 6,1 65 0,2 1157 3,8 14,0 --- 4,1
15.02.2020 4,0 3,5 4,3 5,0 10,0 0,2 89 0,0 1706 1,6 10,1 --- 5,3
14.02.2020 3,6 3,2 4,9 5,4 7,7 2,6 87 0,6 811 2,1 8,7 --- 3,7
13.02.2020 3,5 2,1 1,1 1,8 3,8 -1,8 95 4,3 468 1,3 10,6 --- 0,2
12.02.2020 4,0 3,0 3,3 4,4 11,3 0,1 73 1,3 2012 4,0 14,9 --- 7,0
11.02.2020 4,7 3,9 3,6 4,5 11,1 0,6 73 9,1 1655 4,8 22,9 --- 6,5
10.02.2020 4,9 5,2 7,4 8,3 13,4 3,3 75 22,0 1656 5,6 21,6 --- 6,3
09.02.2020 3,3 2,8 6,2 7,1 12,2 0,5 79 0,1 1314 3,3 17,8 --- 5,5
08.02.2020 3,1 1,6 0,4 1,2 4,5 -2,8 89 0,1 963 0,8 4,5 --- 3,5
07.02.2020 3,6 2,2 -0,2 0,6 5,5 -3,2 89 0,1 1953 0,9 5,8 --- 7,1
06.02.2020 4,2 2,7 -0,4 0,0 2,8 -2,4 94 0,0 715 0,6 2,4 --- 3,3
05.02.2020 5,1 3,9 3,1 3,8 7,7 -0,7 74 0,0 1872 2,7 10,1 --- 6,8
04.02.2020 6,2 5,4 3,4 4,1 7,3 1,7 88 17,5 1081 3,4 13,7 --- 5,1
03.02.2020 6,6 6,7 9,2 9,7 13,0 6,5 77 5,7 1021 3,4 12,0 --- 5,8
02.02.2020 6,2 6,2 8,5 9,0 13,4 4,8 80 4,1 578 3,4 14,1 --- 1,4
01.02.2020 6,0 6,4 9,8 10,5 11,8 8,1 88 13,7 345 2,6 13,7 --- ---
31.01.2020 4,9 5,7 10,8 11,7 15,8 7,4 83 0,4 1366 2,2 9,1 --- 6,0
30.01.2020 3,5 2,9 5,1 5,7 9,0 1,0 84 0,5 1112 1,7 7,5 --- 5,1
29.01.2020 3,5 2,4 2,7 3,4 7,3 0,4 79 0,8 764 2,3 11,8 --- 2,9
28.01.2020 3,8 3,5 4,1 4,7 8,4 1,8 84 11,0 929 3,7 14,4 --- 3,6
27.01.2020 3,2 2,7 3,9 4,1 6,9 1,3 98 8,8 311 1,7 7,0 --- ---
26.01.2020 2,8 2,0 1,0 0,7 2,0 -0,5 100 0,2 419 1,0 3,9 --- ---
25.01.2020 2,5 1,5 -0,2 -0,5 0,7 -1,7 97 0,0 436 0,7 2,9 --- ---
24.01.2020 2,4 1,2 -0,2 -0,3 0,2 -1,1 93 0,0 324 1,1 4,3 --- ---
23.01.2020 2,3 1,0 0,0 0,2 2,6 -2,2 95 0,1 590 0,6 3,0 --- 2,1
22.01.2020 2,7 0,9 -3,4 -3,1 -0,8 -6,2 97 0,0 561 0,8 4,3 --- 0,4
21.01.2020 3,6 2,0 -1,9 -0,9 5,2 -4,6 90 0,1 1443 0,8 4,9 --- 5,5
20.01.2020 4,3 3,5 2,6 2,9 5,6 -1,7 80 0,0 1260 1,8 5,4 --- 4,3
19.01.2020 4,2 3,1 2,9 3,3 5,2 1,5 84 0,0 822 2,7 7,3 --- 4,1
18.01.2020 4,8 3,7 2,5 3,6 7,1 -0,2 85 0,2 680 1,5 7,9 --- 3,5
17.01.2020 5,3 4,2 3,8 5,1 8,8 0,7 92 0,1 670 1,1 6,4 --- 3,5
16.01.2020 5,8 5,8 7,0 8,0 12,5 3,6 91 1,4 1128 0,9 5,6 --- 5,1
15.01.2020 5,2 5,1 8,5 9,3 12,3 6,2 73 0,0 1282 2,1 8,2 --- 5,2
14.01.2020 4,6 4,2 6,8 7,4 10,4 4,2 79 0,0 547 2,8 9,2 --- 3,0
13.01.2020 4,1 3,4 4,4 4,8 6,4 2,7 94 0,0 442 1,8 6,3 --- 0,6
12.01.2020 4,2 2,7 1,0 1,4 5,0 -2,8 95 0,1 470 1,2 6,0 --- 0,3
11.01.2020 5,3 4,4 2,5 3,3 7,7 -1,0 85 0,0 898 1,4 6,4 --- 3,7
10.01.2020 5,7 5,9 7,3 7,8 13,6 4,7 88 2,0 866 2,3 11,2 --- 3,1
09.01.2020 4,8 4,9 7,9 8,2 10,3 5,8 98 15,5 216 1,2 6,3 --- ---
08.01.2020 4,0 3,4 4,3 4,4 6,1 1,8 98 2,0 271 0,8 3,6 --- ---
07.01.2020 3,9 3,2 1,8 2,0 5,7 -0,9 98 0,1 498 0,5 3,2 --- 1,1
06.01.2020 4,1 3,5 2,1 2,1 4,3 -0,6 99 0,0 449 0,9 3,5 --- 0,2
05.01.2020 3,8 3,4 4,3 4,5 6,0 3,5 98 2,7 238 0,6 7,7 --- ---
04.01.2020 3,2 2,8 4,3 4,9 8,1 2,7 86 0,0 501 3,7 11,2 --- 0,5
03.01.2020 2,1 1,1 4,4 4,8 8,9 0,6 94 0,5 384 1,7 8,1 --- 0,3
02.01.2020 2,0 0,5 -1,9 -1,7 0,8 -5,3 99 0,1 268 0,7 3,6 --- ---
01.01.2020 2,2 0,7 -2,0 -1,4 2,1 -5,1 96 0,0 992 0,6 2,0 --- 4,6

Mittelwerte (Temperaturen, Strahlung, rel. Feuchte, Wind), Summe (Regen) für 2020
11,1 11,1 11,0 11,3 71 364 3.873 1,9

Landesbetrieb Landwirtschaft Hessen 2009

      Werte bis 5 Uhr SommerzeitCSV-Datei: Butzbach20.csvDiagramm: Butzbach